Godella, Spain
Current Conditions -  °F | °C
As of 1:30 PM on Sunday 23 Nov 2014 (Local Time) from LEVC Reporting Station
Broken Clouds Broken Clouds  
Wind Chill: 66°   Ceiling: 2300
Heat Index: 66°   Visibility: 6mi
Dew Point: 59°   Wind: 1mph
Humidity: 78%   Direction: NA
Pressure: 29.97"   Gusts: NA
Location:  39.53°N, 0.42°W
Report Text: LEVC 231230Z VRB01KT 9999 BKN023 19/15 Q1015 NOSIG
Loading
Personal Weather Stations






























Interactive Weather Map New forecast layout! Learn more

10-Day Weather Forecast

Advertisements
Track Severe Weather on mobile